createdAt,value
2023-05-10T00:00:16.000Z,10.65
2023-05-10T00:01:16.000Z,10.71
2023-05-10T00:02:16.000Z,10.66
2023-05-10T00:03:16.000Z,10.65
2023-05-10T00:04:16.000Z,10.63
2023-05-10T00:05:16.000Z,10.65
2023-05-10T00:06:17.000Z,10.62
2023-05-10T00:07:17.000Z,10.60
2023-05-10T00:08:17.000Z,10.62
2023-05-10T00:09:17.000Z,10.62
2023-05-10T00:10:17.000Z,10.62
2023-05-10T00:11:17.000Z,10.59
2023-05-10T00:12:17.000Z,10.60
2023-05-10T00:13:17.000Z,10.59
2023-05-10T00:14:17.000Z,10.58
2023-05-10T00:15:17.000Z,10.62
2023-05-10T00:16:17.000Z,10.60
2023-05-10T00:17:17.000Z,10.66
2023-05-10T00:18:17.000Z,10.59
2023-05-10T00:19:17.000Z,10.62
2023-05-10T00:20:17.000Z,10.58
2023-05-10T00:21:17.000Z,10.62
2023-05-10T00:22:17.000Z,10.58
2023-05-10T00:23:17.000Z,10.60
2023-05-10T00:24:17.000Z,10.58
2023-05-10T00:25:18.000Z,10.58
2023-05-10T00:26:18.000Z,10.59
2023-05-10T00:27:18.000Z,10.59
2023-05-10T00:28:18.000Z,10.59
2023-05-10T00:29:18.000Z,10.55
2023-05-10T00:30:18.000Z,10.53
2023-05-10T00:31:18.000Z,10.53
2023-05-10T00:32:18.000Z,10.51
2023-05-10T00:33:18.000Z,10.53
2023-05-10T00:34:18.000Z,10.53
2023-05-10T00:35:18.000Z,10.51
2023-05-10T00:36:18.000Z,10.43
2023-05-10T00:37:18.000Z,10.51
2023-05-10T00:38:18.000Z,10.42
2023-05-10T00:39:18.000Z,10.44
2023-05-10T00:40:18.000Z,10.42
2023-05-10T00:41:18.000Z,10.37
2023-05-10T00:42:19.000Z,10.40
2023-05-10T00:43:19.000Z,10.43
2023-05-10T00:44:19.000Z,10.37
2023-05-10T00:45:19.000Z,10.34
2023-05-10T00:46:19.000Z,10.34
2023-05-10T00:47:19.000Z,10.34
2023-05-10T00:48:19.000Z,10.34
2023-05-10T00:49:19.000Z,10.32
2023-05-10T00:50:19.000Z,10.32
2023-05-10T00:51:19.000Z,10.36
2023-05-10T00:52:19.000Z,10.36
2023-05-10T00:53:19.000Z,10.32
2023-05-10T00:54:19.000Z,10.37
2023-05-10T00:55:19.000Z,10.34
2023-05-10T00:56:19.000Z,10.30
2023-05-10T00:57:19.000Z,10.32
2023-05-10T00:58:19.000Z,10.33
2023-05-10T00:59:19.000Z,10.28
2023-05-10T01:00:19.000Z,10.30
2023-05-10T01:01:20.000Z,10.26
2023-05-10T01:02:20.000Z,10.26
2023-05-10T01:03:20.000Z,10.33
2023-05-10T01:04:20.000Z,10.34
2023-05-10T01:05:20.000Z,10.32
2023-05-10T01:06:20.000Z,10.32
2023-05-10T01:07:20.000Z,10.32
2023-05-10T01:08:20.000Z,10.30
2023-05-10T01:09:20.000Z,10.32
2023-05-10T01:10:20.000Z,10.30
2023-05-10T01:11:20.000Z,10.33
2023-05-10T01:12:20.000Z,10.32
2023-05-10T01:13:20.000Z,10.32
2023-05-10T01:14:20.000Z,10.30
2023-05-10T01:15:20.000Z,10.32
2023-05-10T01:16:20.000Z,10.33
2023-05-10T01:17:20.000Z,10.30
2023-05-10T01:18:20.000Z,10.26
2023-05-10T01:19:21.000Z,10.28
2023-05-10T01:20:21.000Z,10.28
2023-05-10T01:21:21.000Z,10.24
2023-05-10T01:22:21.000Z,10.25
2023-05-10T01:23:21.000Z,10.22
2023-05-10T01:24:21.000Z,10.19
2023-05-10T01:25:21.000Z,10.18
2023-05-10T01:26:21.000Z,10.18
2023-05-10T01:27:21.000Z,10.21
2023-05-10T01:28:21.000Z,10.21
2023-05-10T01:29:21.000Z,10.19
2023-05-10T01:30:21.000Z,10.18
2023-05-10T01:31:21.000Z,10.21
2023-05-10T01:32:21.000Z,10.18
2023-05-10T01:33:21.000Z,10.14
2023-05-10T01:34:21.000Z,10.12
2023-05-10T01:35:21.000Z,10.14
2023-05-10T01:36:22.000Z,10.18
2023-05-10T01:37:22.000Z,10.15
2023-05-10T01:38:22.000Z,10.10
2023-05-10T01:39:22.000Z,10.12
2023-05-10T01:40:22.000Z,10.17
2023-05-10T01:41:22.000Z,10.14
2023-05-10T01:42:22.000Z,10.09
2023-05-10T01:43:22.000Z,10.07
2023-05-10T01:44:22.000Z,10.06
2023-05-10T01:45:22.000Z,10.04
2023-05-10T01:46:22.000Z,10.01
2023-05-10T01:47:22.000Z,10.04
2023-05-10T01:48:22.000Z,10.00
2023-05-10T01:49:22.000Z,10.00
2023-05-10T01:50:22.000Z,9.97
2023-05-10T01:51:22.000Z,10.01
2023-05-10T01:52:22.000Z,9.96
2023-05-10T01:53:23.000Z,9.96
2023-05-10T01:54:23.000Z,9.99
2023-05-10T01:55:23.000Z,9.99
2023-05-10T01:56:23.000Z,9.96
2023-05-10T01:57:23.000Z,10.00
2023-05-10T01:58:23.000Z,10.01
2023-05-10T01:59:23.000Z,9.99
2023-05-10T02:00:23.000Z,9.96
2023-05-10T02:01:23.000Z,9.99
2023-05-10T02:02:23.000Z,9.97
2023-05-10T02:03:23.000Z,9.96
2023-05-10T02:04:23.000Z,10.01
2023-05-10T02:05:23.000Z,9.99
2023-05-10T02:06:23.000Z,9.99
2023-05-10T02:07:23.000Z,9.97
2023-05-10T02:08:23.000Z,9.94
2023-05-10T02:09:24.000Z,9.97
2023-05-10T02:10:24.000Z,9.94
2023-05-10T02:11:24.000Z,9.91
2023-05-10T02:12:24.000Z,9.91
2023-05-10T02:13:24.000Z,9.88
2023-05-10T02:14:24.000Z,9.89
2023-05-10T02:15:24.000Z,9.83
2023-05-10T02:16:24.000Z,9.83
2023-05-10T02:17:24.000Z,9.85
2023-05-10T02:18:24.000Z,9.82
2023-05-10T02:19:24.000Z,9.83
2023-05-10T02:20:24.000Z,9.82
2023-05-10T02:21:24.000Z,9.81
2023-05-10T02:22:24.000Z,9.82
2023-05-10T02:23:24.000Z,9.79
2023-05-10T02:24:25.000Z,9.76
2023-05-10T02:25:25.000Z,9.73
2023-05-10T02:26:25.000Z,9.75
2023-05-10T02:27:25.000Z,9.73
2023-05-10T02:28:25.000Z,9.75
2023-05-10T02:29:25.000Z,9.73
2023-05-10T02:30:25.000Z,9.68
2023-05-10T02:31:25.000Z,9.71
2023-05-10T02:32:25.000Z,9.67
2023-05-10T02:33:25.000Z,9.70
2023-05-10T02:34:25.000Z,9.70
2023-05-10T02:35:25.000Z,9.70
2023-05-10T02:36:25.000Z,9.70
2023-05-10T02:37:25.000Z,9.70
2023-05-10T02:38:26.000Z,9.70
2023-05-10T02:39:26.000Z,9.71
2023-05-10T02:40:26.000Z,9.75
2023-05-10T02:41:26.000Z,9.73
2023-05-10T02:42:26.000Z,9.76
2023-05-10T02:43:26.000Z,9.76
2023-05-10T02:44:26.000Z,9.73
2023-05-10T02:45:26.000Z,9.73
2023-05-10T02:46:26.000Z,9.68
2023-05-10T02:47:26.000Z,9.70
2023-05-10T02:48:26.000Z,9.67
2023-05-10T02:49:26.000Z,9.68
2023-05-10T02:50:26.000Z,9.68
2023-05-10T02:51:26.000Z,9.68
2023-05-10T02:52:26.000Z,9.70
2023-05-10T02:53:27.000Z,9.71
2023-05-10T02:54:27.000Z,9.70
2023-05-10T02:55:27.000Z,9.68
2023-05-10T02:56:27.000Z,9.66
2023-05-10T02:57:27.000Z,9.67
2023-05-10T02:58:27.000Z,9.64
2023-05-10T02:59:27.000Z,9.63
2023-05-10T03:00:27.000Z,9.63
2023-05-10T03:01:27.000Z,9.60
2023-05-10T03:02:27.000Z,9.60
2023-05-10T03:03:27.000Z,9.58
2023-05-10T03:04:27.000Z,9.56
2023-05-10T03:05:27.000Z,9.53
2023-05-10T03:06:27.000Z,9.57
2023-05-10T03:07:27.000Z,9.56
2023-05-10T03:08:28.000Z,9.52
2023-05-10T03:09:28.000Z,9.49
2023-05-10T03:10:28.000Z,9.49
2023-05-10T03:11:28.000Z,9.56
2023-05-10T03:12:28.000Z,9.49
2023-05-10T03:13:28.000Z,9.49
2023-05-10T03:14:28.000Z,9.49
2023-05-10T03:15:28.000Z,9.52
2023-05-10T03:16:28.000Z,9.58
2023-05-10T03:17:28.000Z,9.57
2023-05-10T03:18:28.000Z,9.53
2023-05-10T03:19:28.000Z,9.57
2023-05-10T03:20:28.000Z,9.56
2023-05-10T03:21:28.000Z,9.53
2023-05-10T03:22:29.000Z,9.50
2023-05-10T03:23:29.000Z,9.52
2023-05-10T03:24:29.000Z,9.50
2023-05-10T03:25:29.000Z,9.52
2023-05-10T03:26:29.000Z,9.52
2023-05-10T03:27:29.000Z,9.49
2023-05-10T03:28:29.000Z,9.48
2023-05-10T03:29:29.000Z,9.49
2023-05-10T03:30:29.000Z,9.48
2023-05-10T03:31:29.000Z,9.56
2023-05-10T03:32:29.000Z,9.50
2023-05-10T03:33:29.000Z,9.48
2023-05-10T03:34:29.000Z,9.50
2023-05-10T03:35:29.000Z,9.53
2023-05-10T03:36:29.000Z,9.57
2023-05-10T03:37:30.000Z,9.56
2023-05-10T03:38:30.000Z,9.60
2023-05-10T03:39:30.000Z,9.58
2023-05-10T03:40:30.000Z,9.60
2023-05-10T03:41:30.000Z,9.63
2023-05-10T03:42:30.000Z,9.64
2023-05-10T03:43:30.000Z,9.71
2023-05-10T03:44:30.000Z,9.71
2023-05-10T03:45:30.000Z,9.68
2023-05-10T03:46:30.000Z,9.67
2023-05-10T03:47:30.000Z,9.70
2023-05-10T03:48:30.000Z,9.70
2023-05-10T03:49:30.000Z,9.71
2023-05-10T03:50:30.000Z,9.75
2023-05-10T03:51:31.000Z,9.76
2023-05-10T03:52:31.000Z,9.76
2023-05-10T03:53:31.000Z,9.78
2023-05-10T03:54:31.000Z,9.79
2023-05-10T03:55:31.000Z,9.78
2023-05-10T03:56:31.000Z,9.82
2023-05-10T03:57:31.000Z,9.86
2023-05-10T03:58:31.000Z,9.88
2023-05-10T03:59:31.000Z,9.89
2023-05-10T04:00:31.000Z,9.88
2023-05-10T04:01:31.000Z,9.94
2023-05-10T04:02:31.000Z,9.94
2023-05-10T04:03:31.000Z,9.94
2023-05-10T04:04:31.000Z,9.97
2023-05-10T04:05:31.000Z,9.97
2023-05-10T04:06:32.000Z,10.03
2023-05-10T04:07:32.000Z,10.04
2023-05-10T04:08:32.000Z,10.06
2023-05-10T04:09:32.000Z,10.09
2023-05-10T04:10:32.000Z,10.14
2023-05-10T04:11:32.000Z,10.17
2023-05-10T04:12:32.000Z,10.22
2023-05-10T04:13:32.000Z,10.22
2023-05-10T04:14:32.000Z,10.25
2023-05-10T04:15:32.000Z,10.28
2023-05-10T04:16:32.000Z,10.28
2023-05-10T04:17:32.000Z,10.36
2023-05-10T04:18:32.000Z,10.37
2023-05-10T04:19:32.000Z,10.39
2023-05-10T04:20:32.000Z,10.43
2023-05-10T04:21:33.000Z,10.52
2023-05-10T04:22:33.000Z,10.53
2023-05-10T04:23:33.000Z,10.55
2023-05-10T04:24:33.000Z,10.56
2023-05-10T04:25:33.000Z,10.58
2023-05-10T04:26:33.000Z,10.59
2023-05-10T04:27:33.000Z,10.65
2023-05-10T04:28:33.000Z,10.71
2023-05-10T04:29:33.000Z,10.71
2023-05-10T04:30:33.000Z,10.74
2023-05-10T04:31:33.000Z,10.74
2023-05-10T04:32:33.000Z,10.78
2023-05-10T04:33:33.000Z,10.80
2023-05-10T04:34:33.000Z,10.84
2023-05-10T04:35:33.000Z,10.88
2023-05-10T04:36:34.000Z,10.88
2023-05-10T04:37:34.000Z,10.95
2023-05-10T04:38:34.000Z,10.96
2023-05-10T04:39:34.000Z,10.99
2023-05-10T04:40:34.000Z,11.06
2023-05-10T04:41:34.000Z,11.10
2023-05-10T04:42:34.000Z,11.16
2023-05-10T04:43:34.000Z,11.17
2023-05-10T04:44:34.000Z,11.16
2023-05-10T04:45:34.000Z,11.20
2023-05-10T04:46:34.000Z,11.31
2023-05-10T04:47:34.000Z,11.31
2023-05-10T04:48:34.000Z,11.34
2023-05-10T04:49:34.000Z,11.36
2023-05-10T04:50:34.000Z,11.46
2023-05-10T04:51:34.000Z,11.47
2023-05-10T04:52:34.000Z,11.46
2023-05-10T04:53:34.000Z,11.53
2023-05-10T04:54:35.000Z,11.57
2023-05-10T04:55:35.000Z,11.61
2023-05-10T04:56:35.000Z,11.65
2023-05-10T04:57:35.000Z,11.70
2023-05-10T04:58:35.000Z,11.77
2023-05-10T04:59:35.000Z,11.75
2023-05-10T05:00:35.000Z,11.82
2023-05-10T05:01:35.000Z,11.82
2023-05-10T05:02:35.000Z,11.89
2023-05-10T05:03:35.000Z,11.94
2023-05-10T05:04:35.000Z,11.99
2023-05-10T05:05:35.000Z,12.06
2023-05-10T05:06:35.000Z,12.08
2023-05-10T05:07:35.000Z,12.16
2023-05-10T05:08:35.000Z,12.21
2023-05-10T05:09:35.000Z,12.23
2023-05-10T05:10:35.000Z,12.24
2023-05-10T05:11:35.000Z,12.27
2023-05-10T05:12:35.000Z,12.34
2023-05-10T05:13:35.000Z,12.37
2023-05-10T05:14:36.000Z,12.39
2023-05-10T05:15:36.000Z,12.49
2023-05-10T05:16:36.000Z,12.56
2023-05-10T05:17:36.000Z,12.62
2023-05-10T05:18:36.000Z,12.67
2023-05-10T05:19:36.000Z,12.74
2023-05-10T05:20:36.000Z,12.78
2023-05-10T05:21:36.000Z,12.82
2023-05-10T05:22:36.000Z,12.92
2023-05-10T05:23:36.000Z,13.00
2023-05-10T05:24:36.000Z,13.04
2023-05-10T05:25:36.000Z,13.09
2023-05-10T05:26:36.000Z,13.15
2023-05-10T05:27:36.000Z,13.24
2023-05-10T05:28:36.000Z,13.30
2023-05-10T05:29:36.000Z,13.37
2023-05-10T05:30:36.000Z,13.37
2023-05-10T05:31:36.000Z,13.49
2023-05-10T05:32:36.000Z,13.54
2023-05-10T05:33:36.000Z,13.59
2023-05-10T05:34:36.000Z,13.65
2023-05-10T05:35:36.000Z,13.70
2023-05-10T05:36:36.000Z,13.76
2023-05-10T05:37:37.000Z,13.80
2023-05-10T05:38:37.000Z,13.89
2023-05-10T05:39:37.000Z,13.95
2023-05-10T05:40:37.000Z,14.04
2023-05-10T05:41:37.000Z,14.10
2023-05-10T05:42:37.000Z,14.16
2023-05-10T05:43:37.000Z,14.28
2023-05-10T05:44:37.000Z,14.32
2023-05-10T05:45:37.000Z,14.42
2023-05-10T05:46:37.000Z,14.49
2023-05-10T05:47:37.000Z,14.56
2023-05-10T05:48:37.000Z,14.67
2023-05-10T05:49:37.000Z,14.74
2023-05-10T05:50:37.000Z,14.75
2023-05-10T05:51:37.000Z,14.81
2023-05-10T05:52:37.000Z,14.80
2023-05-10T05:53:37.000Z,14.75
2023-05-10T05:54:37.000Z,14.74
2023-05-10T05:55:37.000Z,14.71
2023-05-10T05:56:37.000Z,14.68
2023-05-10T05:57:37.000Z,14.69
2023-05-10T05:58:37.000Z,14.64
2023-05-10T05:59:37.000Z,14.69
2023-05-10T06:00:37.000Z,14.65
2023-05-10T06:01:37.000Z,14.67
2023-05-10T06:02:37.000Z,14.65
2023-05-10T06:03:37.000Z,14.65
2023-05-10T06:04:37.000Z,14.62
2023-05-10T06:05:37.000Z,14.62
2023-05-10T06:06:37.000Z,14.57
2023-05-10T06:07:37.000Z,14.56
2023-05-10T06:08:37.000Z,14.54
2023-05-10T06:09:37.000Z,14.47
2023-05-10T06:10:37.000Z,14.42
2023-05-10T06:11:37.000Z,14.42
2023-05-10T06:12:37.000Z,14.44
2023-05-10T06:13:37.000Z,14.39
2023-05-10T06:14:37.000Z,14.38
2023-05-10T06:15:38.000Z,14.38
2023-05-10T06:16:38.000Z,14.34
2023-05-10T06:17:38.000Z,14.35
2023-05-10T06:18:38.000Z,14.34
2023-05-10T06:19:38.000Z,14.35
2023-05-10T06:20:38.000Z,14.43
2023-05-10T06:21:38.000Z,14.42
2023-05-10T06:22:38.000Z,14.42
2023-05-10T06:22:38.000Z,14.42
2023-05-10T06:23:38.000Z,14.43
2023-05-10T06:23:38.000Z,14.43
2023-05-10T06:24:38.000Z,14.47
2023-05-10T06:24:38.000Z,14.47
2023-05-10T06:25:38.000Z,14.49
2023-05-10T06:25:38.000Z,14.49
2023-05-10T06:26:38.000Z,14.53
2023-05-10T06:26:38.000Z,14.53
2023-05-10T06:27:38.000Z,14.53
2023-05-10T06:28:38.000Z,14.60
2023-05-10T06:29:38.000Z,14.62
2023-05-10T06:30:38.000Z,14.68
2023-05-10T06:31:38.000Z,14.72
2023-05-10T06:32:38.000Z,14.72
2023-05-10T06:33:38.000Z,14.80
2023-05-10T06:34:38.000Z,14.81
2023-05-10T06:35:38.000Z,14.86
2023-05-10T06:36:38.000Z,14.86
2023-05-10T06:37:38.000Z,14.94
2023-05-10T06:38:38.000Z,14.98
2023-05-10T06:39:38.000Z,15.02
2023-05-10T06:40:38.000Z,15.02
2023-05-10T06:41:38.000Z,15.08
2023-05-10T06:42:38.000Z,15.11
2023-05-10T06:43:38.000Z,15.12
2023-05-10T06:44:38.000Z,15.23
2023-05-10T06:45:38.000Z,15.35
2023-05-10T06:46:38.000Z,15.46
2023-05-10T06:47:38.000Z,15.61
2023-05-10T06:48:38.000Z,15.74
2023-05-10T06:49:38.000Z,15.88
2023-05-10T06:50:38.000Z,15.96
2023-05-10T06:51:38.000Z,16.07
2023-05-10T06:52:38.000Z,16.14
2023-05-10T06:53:38.000Z,16.18
2023-05-10T06:54:38.000Z,16.23
2023-05-10T06:55:38.000Z,16.33
2023-05-10T06:56:38.000Z,16.33
2023-05-10T06:57:38.000Z,16.38
2023-05-10T06:58:38.000Z,16.40
2023-05-10T06:59:38.000Z,16.41
2023-05-10T07:00:38.000Z,16.38
2023-05-10T07:01:38.000Z,16.34
2023-05-10T07:02:38.000Z,16.26
2023-05-10T07:03:38.000Z,16.22
2023-05-10T07:04:38.000Z,16.14
2023-05-10T07:05:38.000Z,16.12
2023-05-10T07:06:38.000Z,16.03
2023-05-10T07:07:38.000Z,16.00
2023-05-10T07:08:38.000Z,15.96
2023-05-10T07:09:38.000Z,15.96
2023-05-10T07:10:38.000Z,15.96
2023-05-10T07:11:38.000Z,15.97
2023-05-10T07:12:38.000Z,15.99
2023-05-10T07:13:38.000Z,15.97
2023-05-10T07:14:38.000Z,15.99
2023-05-10T07:15:38.000Z,16.06
2023-05-10T07:16:38.000Z,16.09
2023-05-10T07:17:38.000Z,16.15
2023-05-10T07:18:38.000Z,16.25
2023-05-10T07:19:38.000Z,16.31
2023-05-10T07:20:38.000Z,16.35
2023-05-10T07:21:38.000Z,16.40
2023-05-10T07:22:38.000Z,16.31
2023-05-10T07:23:38.000Z,16.38
2023-05-10T07:24:38.000Z,16.48
2023-05-10T07:25:38.000Z,16.55
2023-05-10T07:26:38.000Z,16.60
2023-05-10T07:27:38.000Z,16.73
2023-05-10T07:28:38.000Z,16.86
2023-05-10T07:29:38.000Z,17.03
2023-05-10T07:30:38.000Z,17.22
2023-05-10T07:31:38.000Z,17.30
2023-05-10T07:32:38.000Z,17.30
2023-05-10T07:33:38.000Z,17.41
2023-05-10T07:34:38.000Z,17.44
2023-05-10T07:35:38.000Z,17.48
2023-05-10T07:36:38.000Z,17.62
2023-05-10T07:37:38.000Z,17.57
2023-05-10T07:38:38.000Z,17.55
2023-05-10T07:39:38.000Z,17.59
2023-05-10T07:40:38.000Z,17.66
2023-05-10T07:41:38.000Z,17.79
2023-05-10T07:42:38.000Z,17.88
2023-05-10T07:43:38.000Z,17.99
2023-05-10T07:44:38.000Z,17.88
2023-05-10T07:45:38.000Z,17.85
2023-05-10T07:46:38.000Z,17.71
2023-05-10T07:47:38.000Z,17.66
2023-05-10T07:48:38.000Z,17.59
2023-05-10T07:49:38.000Z,17.66
2023-05-10T07:50:38.000Z,17.66
2023-05-10T07:51:38.000Z,17.69
2023-05-10T07:52:37.000Z,17.51
2023-05-10T07:53:37.000Z,17.40
2023-05-10T07:54:37.000Z,17.33
2023-05-10T07:55:37.000Z,17.25
2023-05-10T07:56:37.000Z,17.17
2023-05-10T07:57:37.000Z,17.07
2023-05-10T07:58:37.000Z,16.99
2023-05-10T07:59:37.000Z,16.98
2023-05-10T08:00:37.000Z,16.93
2023-05-10T08:01:37.000Z,16.95
2023-05-10T08:02:37.000Z,16.99
2023-05-10T08:03:37.000Z,16.99
2023-05-10T08:04:37.000Z,17.06
2023-05-10T08:05:37.000Z,17.07
2023-05-10T08:06:37.000Z,17.07
2023-05-10T08:07:37.000Z,17.08
2023-05-10T08:08:37.000Z,17.14
2023-05-10T08:09:37.000Z,17.18
2023-05-10T08:10:37.000Z,17.17
2023-05-10T08:11:37.000Z,17.15
2023-05-10T08:12:37.000Z,17.18
2023-05-10T08:13:37.000Z,17.20
2023-05-10T08:14:37.000Z,17.20
2023-05-10T08:15:37.000Z,17.15
2023-05-10T08:16:37.000Z,17.10
2023-05-10T08:17:37.000Z,17.00
2023-05-10T08:18:37.000Z,16.99
2023-05-10T08:19:37.000Z,16.99
2023-05-10T08:20:37.000Z,16.98
2023-05-10T08:21:37.000Z,17.06
2023-05-10T08:22:37.000Z,17.10
2023-05-10T08:23:37.000Z,17.15
2023-05-10T08:24:37.000Z,17.15
2023-05-10T08:25:37.000Z,17.11
2023-05-10T08:26:37.000Z,16.99
2023-05-10T08:27:37.000Z,16.92
2023-05-10T08:28:37.000Z,16.83
2023-05-10T08:29:37.000Z,16.74
2023-05-10T08:30:37.000Z,16.68
2023-05-10T08:31:37.000Z,16.53
2023-05-10T08:32:37.000Z,16.50
2023-05-10T08:33:37.000Z,16.40
2023-05-10T08:34:37.000Z,16.42
2023-05-10T08:35:37.000Z,16.40
2023-05-10T08:36:37.000Z,16.41
2023-05-10T08:37:37.000Z,16.45
2023-05-10T08:38:37.000Z,16.50
2023-05-10T08:39:37.000Z,16.49
2023-05-10T08:40:37.000Z,16.41
2023-05-10T08:41:37.000Z,16.38
2023-05-10T08:42:37.000Z,16.27
2023-05-10T08:43:37.000Z,16.20
2023-05-10T08:44:37.000Z,16.11
2023-05-10T08:45:37.000Z,16.11
2023-05-10T08:46:36.000Z,16.09
2023-05-10T08:47:36.000Z,16.06
2023-05-10T08:48:36.000Z,16.04
2023-05-10T08:49:36.000Z,16.04
2023-05-10T08:50:36.000Z,16.07
2023-05-10T08:51:36.000Z,16.15
2023-05-10T08:52:36.000Z,16.15
2023-05-10T08:53:36.000Z,16.12
2023-05-10T08:54:36.000Z,16.03
2023-05-10T08:55:36.000Z,16.04
2023-05-10T08:56:36.000Z,15.97
2023-05-10T08:57:36.000Z,15.97
2023-05-10T08:58:36.000Z,15.97
2023-05-10T08:59:36.000Z,15.97
2023-05-10T09:00:36.000Z,15.86
2023-05-10T09:01:36.000Z,15.88
2023-05-10T09:02:36.000Z,15.86
2023-05-10T09:03:36.000Z,15.82
2023-05-10T09:04:36.000Z,15.78
2023-05-10T09:05:36.000Z,15.75
2023-05-10T09:06:36.000Z,15.70
2023-05-10T09:07:36.000Z,15.67
2023-05-10T09:08:36.000Z,15.63
2023-05-10T09:09:36.000Z,15.59
2023-05-10T09:10:36.000Z,15.56
2023-05-10T09:11:36.000Z,15.51
2023-05-10T09:12:36.000Z,15.49
2023-05-10T09:13:36.000Z,15.41
2023-05-10T09:14:36.000Z,15.38
2023-05-10T09:15:36.000Z,15.28
2023-05-10T09:16:36.000Z,15.19
2023-05-10T09:17:36.000Z,15.13
2023-05-10T09:18:36.000Z,15.08
2023-05-10T09:19:36.000Z,14.95
2023-05-10T09:20:36.000Z,14.83
2023-05-10T09:21:36.000Z,14.78
2023-05-10T09:22:36.000Z,14.75
2023-05-10T09:23:36.000Z,14.71
2023-05-10T09:24:36.000Z,14.72
2023-05-10T09:25:36.000Z,14.69
2023-05-10T09:26:36.000Z,14.69
2023-05-10T09:27:36.000Z,14.61
2023-05-10T09:28:36.000Z,14.52
2023-05-10T09:29:36.000Z,14.50
2023-05-10T09:30:36.000Z,14.46
2023-05-10T09:31:36.000Z,14.37
2023-05-10T09:32:36.000Z,14.34
2023-05-10T09:33:36.000Z,14.32
2023-05-10T09:34:36.000Z,14.24
2023-05-10T09:35:36.000Z,14.19
2023-05-10T09:36:36.000Z,14.13
2023-05-10T09:37:36.000Z,14.09
2023-05-10T09:38:36.000Z,14.07
2023-05-10T09:39:36.000Z,14.06
2023-05-10T09:40:36.000Z,13.99
2023-05-10T09:41:36.000Z,13.98
2023-05-10T09:42:36.000Z,13.95
2023-05-10T09:43:36.000Z,13.96
2023-05-10T09:44:36.000Z,13.95
2023-05-10T09:45:36.000Z,13.87
2023-05-10T09:46:36.000Z,13.81
2023-05-10T09:47:36.000Z,13.83
2023-05-10T09:48:36.000Z,13.79
2023-05-10T09:49:36.000Z,13.77
2023-05-10T09:50:36.000Z,13.76
2023-05-10T09:51:36.000Z,13.71
2023-05-10T09:52:36.000Z,13.71
2023-05-10T09:53:36.000Z,13.71
2023-05-10T09:54:36.000Z,13.73
2023-05-10T09:55:36.000Z,13.71
2023-05-10T09:56:36.000Z,13.74
2023-05-10T09:57:36.000Z,13.76
2023-05-10T09:58:36.000Z,13.77
2023-05-10T09:59:36.000Z,13.81
2023-05-10T10:00:36.000Z,13.80
2023-05-10T10:01:36.000Z,13.84
2023-05-10T10:02:36.000Z,13.83
2023-05-10T10:03:36.000Z,13.87
2023-05-10T10:04:36.000Z,13.94
2023-05-10T10:05:36.000Z,14.02
2023-05-10T10:06:36.000Z,14.04
2023-05-10T10:07:36.000Z,14.12
2023-05-10T10:08:36.000Z,14.14
2023-05-10T10:09:36.000Z,14.17
2023-05-10T10:10:36.000Z,14.19
2023-05-10T10:11:36.000Z,14.25
2023-05-10T10:12:36.000Z,14.27
2023-05-10T10:13:36.000Z,14.29
2023-05-10T10:14:37.000Z,14.35
2023-05-10T10:15:37.000Z,14.34
2023-05-10T10:16:37.000Z,14.34
2023-05-10T10:17:37.000Z,14.37
2023-05-10T10:18:37.000Z,14.34
2023-05-10T10:19:37.000Z,14.38
2023-05-10T10:20:37.000Z,14.39
2023-05-10T10:21:37.000Z,14.43
2023-05-10T10:22:37.000Z,14.42
2023-05-10T10:23:37.000Z,14.43
2023-05-10T10:24:37.000Z,14.39
2023-05-10T10:25:37.000Z,14.38
2023-05-10T10:26:37.000Z,14.42
2023-05-10T10:27:37.000Z,14.39
2023-05-10T10:28:37.000Z,14.46
2023-05-10T10:29:37.000Z,14.44
2023-05-10T10:30:37.000Z,14.43
2023-05-10T10:31:37.000Z,14.43
2023-05-10T10:32:37.000Z,14.43
2023-05-10T10:33:37.000Z,14.43
2023-05-10T10:34:37.000Z,14.42
2023-05-10T10:35:37.000Z,14.38
2023-05-10T10:36:37.000Z,14.32
2023-05-10T10:37:37.000Z,14.28
2023-05-10T10:38:37.000Z,14.29
2023-05-10T10:39:37.000Z,14.28
2023-05-10T10:40:37.000Z,14.25
2023-05-10T10:41:37.000Z,14.27
2023-05-10T10:42:37.000Z,14.27
2023-05-10T10:43:37.000Z,14.25
2023-05-10T10:44:37.000Z,14.21
2023-05-10T10:45:37.000Z,14.24
2023-05-10T10:46:37.000Z,14.25
2023-05-10T10:47:37.000Z,14.27
2023-05-10T10:48:37.000Z,14.28
2023-05-10T10:49:37.000Z,14.29
2023-05-10T10:50:37.000Z,14.32
2023-05-10T10:51:37.000Z,14.34
2023-05-10T10:52:37.000Z,14.34
2023-05-10T10:53:37.000Z,14.37
2023-05-10T10:54:37.000Z,14.39
2023-05-10T10:55:37.000Z,14.42
2023-05-10T10:56:37.000Z,14.42
2023-05-10T10:57:37.000Z,14.44
2023-05-10T10:58:37.000Z,14.37
2023-05-10T10:59:37.000Z,14.37
2023-05-10T11:00:37.000Z,14.39
2023-05-10T11:01:37.000Z,14.44
2023-05-10T11:02:37.000Z,14.43
2023-05-10T11:03:37.000Z,14.50
2023-05-10T11:04:37.000Z,14.47
2023-05-10T11:05:37.000Z,14.43
2023-05-10T11:06:37.000Z,14.46
2023-05-10T11:07:37.000Z,14.49
2023-05-10T11:08:37.000Z,14.49
2023-05-10T11:09:37.000Z,14.50
2023-05-10T11:10:37.000Z,14.54
2023-05-10T11:11:37.000Z,14.56
2023-05-10T11:12:37.000Z,14.54
2023-05-10T11:13:37.000Z,14.57
2023-05-10T11:14:37.000Z,14.60
2023-05-10T11:15:37.000Z,14.61
2023-05-10T11:16:37.000Z,14.62
2023-05-10T11:17:37.000Z,14.57
2023-05-10T11:18:37.000Z,14.57
2023-05-10T11:19:37.000Z,14.54
2023-05-10T11:20:37.000Z,14.54
2023-05-10T11:21:37.000Z,14.52
2023-05-10T11:22:37.000Z,14.56
2023-05-10T11:23:37.000Z,14.54
2023-05-10T11:24:37.000Z,14.56
2023-05-10T11:25:37.000Z,14.54
2023-05-10T11:26:37.000Z,14.54
2023-05-10T11:27:37.000Z,14.61
2023-05-10T11:28:38.000Z,14.60
2023-05-10T11:29:38.000Z,14.61
2023-05-10T11:30:38.000Z,14.65
2023-05-10T11:31:38.000Z,14.67
2023-05-10T11:32:38.000Z,14.72
2023-05-10T11:33:38.000Z,14.74
2023-05-10T11:34:38.000Z,14.69
2023-05-10T11:35:38.000Z,14.80
2023-05-10T11:36:38.000Z,14.81
2023-05-10T11:37:38.000Z,14.81
2023-05-10T11:38:38.000Z,14.84
2023-05-10T11:39:38.000Z,14.88
2023-05-10T11:40:38.000Z,14.95
2023-05-10T11:41:38.000Z,15.01
2023-05-10T11:42:38.000Z,15.01
2023-05-10T11:43:38.000Z,15.02
2023-05-10T11:44:38.000Z,15.02
2023-05-10T11:45:38.000Z,15.03
2023-05-10T11:46:38.000Z,15.02
2023-05-10T11:47:38.000Z,15.08
2023-05-10T11:48:38.000Z,15.09
2023-05-10T11:49:38.000Z,15.13
2023-05-10T11:50:38.000Z,15.20
2023-05-10T11:51:38.000Z,15.26
2023-05-10T11:52:38.000Z,15.33
2023-05-10T11:53:38.000Z,15.43
2023-05-10T11:54:38.000Z,15.43
2023-05-10T11:55:38.000Z,15.48
2023-05-10T11:56:38.000Z,15.52
2023-05-10T11:57:38.000Z,15.48
2023-05-10T11:58:38.000Z,15.49
2023-05-10T11:59:38.000Z,15.54
2023-05-10T12:00:38.000Z,15.54
2023-05-10T12:01:38.000Z,15.60
2023-05-10T12:02:38.000Z,15.68
2023-05-10T12:03:38.000Z,15.74
2023-05-10T12:04:38.000Z,15.70
2023-05-10T12:05:38.000Z,15.76
2023-05-10T12:06:38.000Z,15.82
2023-05-10T12:07:38.000Z,15.84
2023-05-10T12:08:38.000Z,15.84
2023-05-10T12:09:38.000Z,15.82
2023-05-10T12:10:38.000Z,15.86
2023-05-10T12:11:38.000Z,15.88
2023-05-10T12:12:38.000Z,15.96
2023-05-10T12:13:38.000Z,15.94
2023-05-10T12:14:38.000Z,15.96
2023-05-10T12:15:38.000Z,16.00
2023-05-10T12:16:38.000Z,15.99
2023-05-10T12:17:38.000Z,16.04
2023-05-10T12:18:38.000Z,16.03
2023-05-10T12:19:38.000Z,16.11
2023-05-10T12:20:38.000Z,16.14
2023-05-10T12:21:38.000Z,16.18
2023-05-10T12:22:38.000Z,16.18
2023-05-10T12:23:38.000Z,16.23
2023-05-10T12:24:38.000Z,16.30
2023-05-10T12:25:38.000Z,16.35
2023-05-10T12:26:38.000Z,16.37
2023-05-10T12:27:38.000Z,16.34
2023-05-10T12:28:38.000Z,16.34
2023-05-10T12:29:38.000Z,16.35
2023-05-10T12:30:38.000Z,16.38
2023-05-10T12:31:38.000Z,16.35
2023-05-10T12:32:38.000Z,16.26
2023-05-10T12:33:38.000Z,16.25
2023-05-10T12:34:38.000Z,16.26
2023-05-10T12:35:38.000Z,16.22
2023-05-10T12:36:38.000Z,16.20
2023-05-10T12:37:38.000Z,16.22
2023-05-10T12:38:38.000Z,16.25
2023-05-10T12:39:38.000Z,16.18
2023-05-10T12:40:38.000Z,16.16
2023-05-10T12:41:38.000Z,16.18
2023-05-10T12:42:38.000Z,16.23
2023-05-10T12:43:37.000Z,16.25
2023-05-10T12:44:37.000Z,16.31
2023-05-10T12:45:37.000Z,16.34
2023-05-10T12:46:37.000Z,16.35
2023-05-10T12:47:37.000Z,16.30
2023-05-10T12:48:37.000Z,16.25
2023-05-10T12:49:37.000Z,16.18
2023-05-10T12:50:37.000Z,16.16
2023-05-10T12:51:37.000Z,16.22